Terminal Aerodrome Forecast
Issued by NWS

Home | Current Version | Previous Version | Text Only | Print | Product List | Glossary On
Versions: 1 2 3 4 5 6 7 8 9 10 11 12 13 14 15 16 17 18 19 20
964
FTUS44 KCRP 230944 AAA
TAFALI
TAF AMD
KALI 230944Z 2310/2406 14005KT 6SM BR SCT018
      TEMPO 2310/2314 3SM BR BKN018
     FM231500 17017G24KT P6SM BKN025
     FM231700 16019G27KT P6SM SCT035 SCT250
     FM232100 14023G30KT P6SM SCT250
     FM240200 15015G22KT P6SM SCT250=

USA.gov is the U.S. government's official web portal to all federal, state and local government web resources and services.